createdAt,value
2022-12-18T00:01:25.178Z,5.97
2022-12-18T00:03:53.645Z,6.17
2022-12-18T00:06:22.867Z,6.13
2022-12-18T00:08:51.979Z,6.43
2022-12-18T00:11:22.129Z,5.37
2022-12-18T00:13:51.486Z,6.23
2022-12-18T00:16:23.330Z,5.47
2022-12-18T00:18:52.726Z,5.70
2022-12-18T00:21:20.958Z,6.60
2022-12-18T00:23:50.282Z,5.47
2022-12-18T00:26:24.012Z,5.73
2022-12-18T00:28:54.205Z,5.97
2022-12-18T00:31:24.473Z,6.00
2022-12-18T00:33:54.097Z,6.60
2022-12-18T00:36:25.071Z,6.23
2022-12-18T00:38:53.657Z,5.60
2022-12-18T00:41:35.557Z,6.70
2022-12-18T00:44:05.934Z,6.03
2022-12-18T00:46:34.011Z,6.03
2022-12-18T00:49:01.757Z,6.57
2022-12-18T00:51:29.546Z,6.10
2022-12-18T00:53:57.609Z,6.00
2022-12-18T00:56:26.192Z,6.27
2022-12-18T00:58:54.334Z,5.87
2022-12-18T01:01:23.502Z,6.10
2022-12-18T01:03:51.680Z,5.63
2022-12-18T01:06:19.499Z,5.47
2022-12-18T01:08:47.314Z,5.47
2022-12-18T01:11:17.886Z,5.93
2022-12-18T01:13:45.659Z,6.50
2022-12-18T01:16:14.186Z,5.93
2022-12-18T01:18:43.569Z,6.00
2022-12-18T01:21:13.582Z,6.17
2022-12-18T01:23:41.839Z,5.07
2022-12-18T01:26:11.064Z,5.70
2022-12-18T01:28:38.976Z,5.03
2022-12-18T01:31:16.847Z,5.70
2022-12-18T01:33:46.925Z,4.70
2022-12-18T01:36:19.719Z,5.70
2022-12-18T01:38:48.539Z,6.17
2022-12-18T01:41:18.394Z,5.00
2022-12-18T01:43:49.150Z,5.33
2022-12-18T01:46:17.864Z,5.07
2022-12-18T01:48:48.883Z,5.47
2022-12-18T01:51:17.245Z,5.10
2022-12-18T01:53:46.737Z,5.10
2022-12-18T01:56:16.576Z,5.37
2022-12-18T01:58:53.887Z,4.83
2022-12-18T02:01:23.618Z,4.80
2022-12-18T02:03:53.435Z,6.20
2022-12-18T02:06:27.256Z,5.47
2022-12-18T02:09:07.458Z,5.20
2022-12-18T02:11:48.791Z,4.77
2022-12-18T02:14:25.623Z,4.70
2022-12-18T02:17:01.821Z,4.30
2022-12-18T02:19:44.504Z,4.57
2022-12-18T02:22:26.300Z,4.93
2022-12-18T02:25:08.439Z,5.33
2022-12-18T02:27:41.421Z,4.93
2022-12-18T02:30:10.302Z,5.40
2022-12-18T02:32:48.153Z,5.03
2022-12-18T02:35:19.018Z,4.77
2022-12-18T02:37:48.857Z,5.17
2022-12-18T02:40:19.226Z,5.20
2022-12-18T02:42:48.317Z,5.00
2022-12-18T02:45:16.111Z,4.83
2022-12-18T02:47:47.952Z,5.33
2022-12-18T02:50:24.709Z,4.73
2022-12-18T02:53:02.917Z,5.00
2022-12-18T02:55:43.185Z,5.60
2022-12-18T02:58:19.775Z,7.77
2022-12-18T03:00:56.800Z,7.90
2022-12-18T03:03:30.298Z,7.07
2022-12-18T03:06:04.017Z,7.27
2022-12-18T03:08:36.423Z,7.30
2022-12-18T03:11:06.848Z,7.03
2022-12-18T03:13:39.310Z,5.23
2022-12-18T03:16:09.666Z,5.87
2022-12-18T03:18:41.013Z,6.70
2022-12-18T03:21:11.793Z,6.93
2022-12-18T03:23:46.861Z,7.33
2022-12-18T03:26:17.781Z,7.00
2022-12-18T03:28:52.950Z,7.93
2022-12-18T03:31:24.281Z,7.00
2022-12-18T03:33:55.057Z,7.07
2022-12-18T03:36:24.791Z,8.03
2022-12-18T03:38:53.450Z,8.30
2022-12-18T03:41:30.699Z,7.53
2022-12-18T03:44:10.582Z,6.83
2022-12-18T03:46:47.370Z,7.53
2022-12-18T03:49:21.835Z,5.87
2022-12-18T03:51:56.600Z,6.10
2022-12-18T03:54:26.415Z,5.83
2022-12-18T03:57:00.202Z,5.20
2022-12-18T03:59:30.945Z,6.10
2022-12-18T04:02:01.610Z,5.30
2022-12-18T04:04:31.392Z,4.83
2022-12-18T04:07:00.501Z,4.27
2022-12-18T04:09:29.445Z,4.03
2022-12-18T04:11:57.218Z,4.60
2022-12-18T04:14:25.043Z,3.97
2022-12-18T04:16:54.151Z,4.50
2022-12-18T04:19:21.986Z,4.50
2022-12-18T04:21:49.762Z,4.00
2022-12-18T04:24:17.632Z,4.07
2022-12-18T04:26:45.361Z,4.07
2022-12-18T04:29:13.035Z,4.20
2022-12-18T04:31:40.903Z,4.30
2022-12-18T04:34:10.079Z,4.40
2022-12-18T04:36:37.924Z,4.60
2022-12-18T04:39:05.636Z,4.17
2022-12-18T04:41:33.362Z,4.17
2022-12-18T04:44:01.059Z,4.60
2022-12-18T04:46:28.943Z,4.43
2022-12-18T04:48:56.688Z,4.43
2022-12-18T04:51:26.804Z,4.47
2022-12-18T04:53:54.714Z,4.60
2022-12-18T04:56:22.778Z,4.13
2022-12-18T04:58:50.871Z,4.30
2022-12-18T05:01:20.265Z,4.40
2022-12-18T05:03:48.082Z,3.90
2022-12-18T05:06:15.975Z,4.73
2022-12-18T05:08:45.183Z,5.00
2022-12-18T05:11:16.714Z,4.50
2022-12-18T05:13:44.731Z,4.43
2022-12-18T05:16:13.129Z,4.10
2022-12-18T05:18:41.246Z,4.17
2022-12-18T05:21:08.971Z,4.10
2022-12-18T05:23:38.224Z,4.20
2022-12-18T05:26:09.311Z,4.60
2022-12-18T05:28:38.403Z,5.47
2022-12-18T05:31:07.168Z,4.27
2022-12-18T05:33:36.754Z,4.67
2022-12-18T05:36:07.029Z,4.17
2022-12-18T05:38:36.693Z,4.27
2022-12-18T05:41:04.823Z,3.70
2022-12-18T05:43:35.949Z,4.17
2022-12-18T05:46:06.383Z,6.00
2022-12-18T05:48:34.195Z,4.47
2022-12-18T05:51:07.637Z,4.60
2022-12-18T05:53:35.534Z,4.90
2022-12-18T05:56:04.751Z,4.40
2022-12-18T05:58:34.763Z,5.07
2022-12-18T06:01:09.271Z,4.40
2022-12-18T06:03:37.107Z,4.30
2022-12-18T06:06:05.303Z,3.93
2022-12-18T06:08:33.050Z,4.70
2022-12-18T06:11:00.819Z,4.07
2022-12-18T06:13:28.505Z,3.90
2022-12-18T06:15:57.610Z,4.30
2022-12-18T06:18:25.342Z,4.20
2022-12-18T06:20:57.739Z,4.23
2022-12-18T06:23:25.721Z,4.60
2022-12-18T06:25:53.995Z,5.00
2022-12-18T06:28:21.744Z,6.70
2022-12-18T06:30:50.277Z,9.07
2022-12-18T06:33:19.327Z,12.07
2022-12-18T06:35:46.981Z,10.20
2022-12-18T06:38:15.625Z,15.63
2022-12-18T06:40:43.304Z,11.57
2022-12-18T06:43:11.055Z,6.80
2022-12-18T06:45:38.762Z,7.23
2022-12-18T06:48:06.707Z,6.60
2022-12-18T06:50:35.799Z,5.70
2022-12-18T06:53:03.569Z,4.60
2022-12-18T06:55:31.889Z,6.07
2022-12-18T06:57:59.570Z,4.50
2022-12-18T07:00:27.555Z,5.00
2022-12-18T07:02:55.374Z,4.90
2022-12-18T07:05:23.107Z,4.50
2022-12-18T07:07:52.187Z,4.43
2022-12-18T07:10:20.112Z,5.10
2022-12-18T07:12:47.809Z,4.90
2022-12-18T07:15:15.718Z,5.40
2022-12-18T07:17:43.470Z,5.57
2022-12-18T07:20:12.247Z,5.53
2022-12-18T07:22:39.915Z,5.80
2022-12-18T07:25:09.941Z,7.00
2022-12-18T07:27:37.618Z,8.30
2022-12-18T07:30:06.397Z,7.10
2022-12-18T07:32:34.187Z,7.67
2022-12-18T07:35:01.886Z,7.17
2022-12-18T07:37:29.663Z,9.97
2022-12-18T07:39:57.375Z,6.83
2022-12-18T07:42:32.325Z,10.47
2022-12-18T07:45:00.164Z,6.33
2022-12-18T07:47:27.947Z,10.27
2022-12-18T07:49:57.160Z,11.13
2022-12-18T07:52:26.355Z,9.73
2022-12-18T07:54:54.293Z,13.23
2022-12-18T07:57:48.776Z,13.50
2022-12-18T08:00:13.316Z,13.53
2022-12-18T08:02:41.213Z,13.37
2022-12-18T08:05:10.730Z,14.47
2022-12-18T08:07:38.612Z,19.33
2022-12-18T08:10:07.617Z,14.67
2022-12-18T08:12:35.469Z,16.73
2022-12-18T08:15:03.390Z,13.27
2022-12-18T08:17:33.089Z,16.93
2022-12-18T08:20:00.869Z,16.43
2022-12-18T08:22:28.744Z,22.33
2022-12-18T08:24:56.911Z,8.20
2022-12-18T08:27:31.980Z,20.57
2022-12-18T08:30:00.637Z,8.50
2022-12-18T08:32:32.604Z,10.93
2022-12-18T08:35:01.842Z,9.67
2022-12-18T08:37:29.705Z,9.87
2022-12-18T08:39:57.396Z,9.33
2022-12-18T08:42:42.363Z,10.23
2022-12-18T08:45:11.004Z,13.57
2022-12-18T08:47:39.029Z,11.33
2022-12-18T08:50:08.785Z,8.93
2022-12-18T08:52:36.755Z,9.80
2022-12-18T08:55:07.722Z,9.87
2022-12-18T08:57:35.458Z,6.00
2022-12-18T09:00:03.173Z,6.43
2022-12-18T09:02:31.046Z,6.43
2022-12-18T09:04:58.815Z,6.20
2022-12-18T09:07:28.504Z,5.97
2022-12-18T09:09:56.301Z,5.70
2022-12-18T09:12:24.098Z,5.47
2022-12-18T09:14:51.872Z,5.97
2022-12-18T09:17:19.798Z,5.97
2022-12-18T09:19:47.737Z,5.60
2022-12-18T09:22:15.562Z,5.67
2022-12-18T09:24:44.680Z,5.70
2022-12-18T09:27:12.398Z,6.70
2022-12-18T09:29:40.389Z,6.83
2022-12-18T09:32:08.075Z,7.40
2022-12-18T09:34:35.932Z,7.53
2022-12-18T09:37:03.615Z,6.20
2022-12-18T09:39:31.333Z,5.63
2022-12-18T09:42:01.383Z,6.80
2022-12-18T09:44:31.911Z,5.47
2022-12-18T09:47:08.048Z,6.23
2022-12-18T09:49:39.377Z,4.80
2022-12-18T09:52:13.623Z,5.93
2022-12-18T09:54:54.140Z,5.70
2022-12-18T09:57:26.468Z,8.30
2022-12-18T09:59:57.605Z,7.70
2022-12-18T10:02:27.945Z,6.17
2022-12-18T10:05:13.505Z,7.00
2022-12-18T10:07:55.348Z,5.90
2022-12-18T10:10:35.802Z,5.43
2022-12-18T10:13:16.534Z,5.80
2022-12-18T10:15:56.922Z,7.27
2022-12-18T10:18:39.979Z,5.60
2022-12-18T10:21:14.410Z,4.80
2022-12-18T10:23:49.947Z,4.80
2022-12-18T10:26:17.658Z,4.80
2022-12-18T10:28:47.167Z,5.40
2022-12-18T10:31:18.917Z,4.63
2022-12-18T10:33:46.998Z,4.70
2022-12-18T10:36:14.715Z,5.10
2022-12-18T10:38:43.375Z,4.80
2022-12-18T10:41:27.690Z,5.40
2022-12-18T10:44:17.840Z,4.90
2022-12-18T10:46:47.077Z,4.70
2022-12-18T10:49:24.485Z,4.57
2022-12-18T10:51:53.566Z,5.20
2022-12-18T10:54:24.580Z,5.10
2022-12-18T10:56:52.278Z,5.27
2022-12-18T10:59:21.377Z,5.53
2022-12-18T11:01:51.876Z,4.60
2022-12-18T11:04:22.825Z,4.20
2022-12-18T11:06:59.970Z,4.50
2022-12-18T11:09:29.144Z,4.63
2022-12-18T11:12:00.057Z,5.23
2022-12-18T11:14:31.190Z,4.30
2022-12-18T11:19:55.245Z,5.00
2022-12-18T11:22:27.413Z,4.83
2022-12-18T11:27:51.371Z,4.93
2022-12-18T11:30:26.301Z,4.77
2022-12-18T11:32:57.851Z,4.30
2022-12-18T11:35:40.034Z,4.27
2022-12-18T11:38:19.415Z,4.70
2022-12-18T11:40:53.779Z,4.23
2022-12-18T11:43:28.081Z,5.23
2022-12-18T11:46:01.683Z,4.97
2022-12-18T11:48:32.605Z,5.17
2022-12-18T11:51:03.563Z,4.90
2022-12-18T11:53:32.506Z,4.30
2022-12-18T11:56:25.062Z,4.53
2022-12-18T11:59:00.182Z,4.37
2022-12-18T12:01:44.626Z,4.30
2022-12-18T12:04:34.025Z,4.40
2022-12-18T12:07:13.802Z,4.80
2022-12-18T12:09:52.075Z,5.60
2022-12-18T12:12:48.650Z,4.90
2022-12-18T12:15:28.147Z,4.50
2022-12-18T12:18:10.934Z,4.33
2022-12-18T12:20:49.775Z,6.00
2022-12-18T12:23:28.215Z,4.10
2022-12-18T12:26:04.930Z,4.70
2022-12-18T12:28:51.482Z,5.17
2022-12-18T12:31:32.524Z,4.70
2022-12-18T12:34:07.533Z,4.50
2022-12-18T12:36:53.640Z,5.50
2022-12-18T12:39:27.113Z,5.23
2022-12-18T12:42:15.792Z,5.70
2022-12-18T12:44:52.642Z,5.30
2022-12-18T12:47:30.178Z,4.83
2022-12-18T12:50:01.335Z,6.07
2022-12-18T12:52:36.848Z,4.77
2022-12-18T12:55:11.515Z,4.33
2022-12-18T12:57:47.777Z,4.43
2022-12-18T13:00:19.411Z,3.90
2022-12-18T13:02:54.809Z,4.70
2022-12-18T13:05:32.465Z,4.30
2022-12-18T13:08:07.270Z,4.23
2022-12-18T13:10:38.253Z,4.60
2022-12-18T13:13:08.988Z,4.10
2022-12-18T13:15:41.040Z,4.00
2022-12-18T13:18:16.811Z,3.33
2022-12-18T13:20:53.625Z,3.60
2022-12-18T13:23:35.129Z,4.17
2022-12-18T13:26:31.924Z,4.03
2022-12-18T13:29:00.509Z,4.30
2022-12-18T13:32:02.286Z,4.57
2022-12-18T13:34:33.006Z,4.97
2022-12-18T13:37:34.735Z,4.90
2022-12-18T13:40:04.807Z,5.47
2022-12-18T13:43:00.305Z,5.60
2022-12-18T13:46:00.517Z,5.30
2022-12-18T13:48:29.980Z,5.83
2022-12-18T13:51:01.594Z,6.27
2022-12-18T13:53:34.958Z,6.23
2022-12-18T13:56:04.877Z,6.20
2022-12-18T13:58:33.156Z,6.00
2022-12-18T14:01:03.090Z,6.23
2022-12-18T14:03:32.404Z,6.70
2022-12-18T14:06:07.926Z,6.70
2022-12-18T14:08:40.674Z,7.00
2022-12-18T14:11:23.232Z,7.17
2022-12-18T14:13:51.672Z,7.70
2022-12-18T14:16:19.830Z,7.93
2022-12-18T14:18:52.849Z,7.73
2022-12-18T14:21:25.217Z,8.43
2022-12-18T14:24:06.504Z,11.77
2022-12-18T14:26:35.796Z,11.73
2022-12-18T14:29:21.640Z,9.23
2022-12-18T14:32:08.387Z,10.47
2022-12-18T14:34:38.309Z,9.90
2022-12-18T14:37:06.544Z,10.03
2022-12-18T14:39:34.349Z,10.47
2022-12-18T14:42:03.512Z,11.20
2022-12-18T14:44:44.160Z,10.93
2022-12-18T14:47:18.990Z,9.80
2022-12-18T14:49:46.880Z,9.87
2022-12-18T14:52:28.301Z,10.60
2022-12-18T14:54:56.177Z,11.47
2022-12-18T14:57:27.453Z,12.97
2022-12-18T14:59:55.288Z,10.80
2022-12-18T15:02:25.806Z,11.80
2022-12-18T15:05:04.378Z,11.77
2022-12-18T15:07:42.929Z,10.30
2022-12-18T15:10:13.992Z,12.60
2022-12-18T15:12:44.706Z,12.23
2022-12-18T15:15:48.630Z,13.73
2022-12-18T15:18:18.947Z,14.67
2022-12-18T15:20:49.286Z,14.47
2022-12-18T15:23:20.629Z,15.50
2022-12-18T15:25:50.450Z,14.87
2022-12-18T15:28:25.100Z,13.17
2022-12-18T15:31:05.706Z,14.80
2022-12-18T15:33:35.503Z,16.20
2022-12-18T15:36:05.626Z,14.60
2022-12-18T15:38:34.183Z,14.90
2022-12-18T15:41:02.955Z,12.57
2022-12-18T15:43:37.919Z,16.47
2022-12-18T15:46:07.560Z,14.88
2022-12-18T15:48:37.650Z,16.60
2022-12-18T15:51:07.426Z,16.00
2022-12-18T15:53:35.641Z,16.27
2022-12-18T15:56:21.048Z,17.53
2022-12-18T15:58:50.313Z,15.40
2022-12-18T16:01:22.591Z,14.90
2022-12-18T16:03:50.425Z,15.43
2022-12-18T16:06:18.352Z,15.63
2022-12-18T16:08:46.043Z,17.87
2022-12-18T16:11:39.084Z,15.83
2022-12-18T16:14:17.424Z,16.33
2022-12-18T16:16:46.474Z,18.43
2022-12-18T16:19:14.259Z,15.73
2022-12-18T16:21:42.078Z,17.07
2022-12-18T16:24:16.781Z,17.47
2022-12-18T16:26:45.079Z,16.93
2022-12-18T16:29:14.200Z,17.93
2022-12-18T16:31:42.345Z,17.23
2022-12-18T16:34:15.313Z,17.23
2022-12-18T16:36:43.105Z,18.07
2022-12-18T16:39:10.878Z,18.10
2022-12-18T16:41:38.706Z,18.73
2022-12-18T16:44:06.472Z,17.10
2022-12-18T16:46:35.752Z,18.23
2022-12-18T16:49:03.520Z,16.60
2022-12-18T16:51:31.444Z,15.50
2022-12-18T16:53:59.150Z,15.60
2022-12-18T16:56:27.355Z,17.37
2022-12-18T16:58:56.724Z,16.20
2022-12-18T17:01:25.359Z,18.63
2022-12-18T17:03:55.894Z,18.10
2022-12-18T17:06:24.283Z,13.40
2022-12-18T17:08:58.185Z,16.80
2022-12-18T17:11:26.763Z,14.97
2022-12-18T17:13:55.519Z,17.37
2022-12-18T17:16:23.853Z,16.07
2022-12-18T17:18:51.928Z,17.03
2022-12-18T17:21:20.999Z,16.37
2022-12-18T17:23:48.654Z,17.67
2022-12-18T17:26:16.400Z,16.37
2022-12-18T17:28:44.448Z,14.57
2022-12-18T17:31:13.715Z,16.13
2022-12-18T17:33:41.989Z,15.37
2022-12-18T17:36:10.580Z,13.17
2022-12-18T17:38:40.177Z,14.83
2022-12-18T17:41:10.189Z,16.57
2022-12-18T17:43:39.583Z,16.20
2022-12-18T17:46:08.110Z,9.90
2022-12-18T17:48:37.332Z,15.90
